Time;durP1;ratioP1;P1;durP2;ratioP2;P2;SDS_P1;SDS_P2;PMS_P1;PMS_P2;Temp;Humidity;BMP_temperature;BMP_pressure;BME280_temperature;BME280_humidity;BME280_pressure;Samples;Min_cycle;Max_cycle;Signal;HPM_P1;HPM_P2
2022/12/08 00:01:13;;;;;;;115.03;46.88;;;2.80;99.90;;;;;;4989393;28;20042;-74
2022/12/08 00:03:40;;;;;;;118.38;46.63;;;2.80;99.90;;;;;;4973947;28;20307;-74
2022/12/08 00:09:28;;;;;;;112.70;45.90;;;2.80;99.90;;;;;;4974771;28;20046;-74
2022/12/08 00:12:09;;;;;;;113.57;45.00;;;2.90;99.90;;;;;;4970467;28;20057;-74
2022/12/08 00:14:39;;;;;;;114.18;48.45;;;2.80;99.90;;;;;;4983937;28;20138;-74
2022/12/08 00:17:08;;;;;;;116.32;50.25;;;2.80;99.90;;;;;;4979282;28;20077;-74
2022/12/08 00:19:36;;;;;;;117.25;48.85;;;2.90;99.90;;;;;;4975848;28;20065;-75
2022/12/08 00:22:02;;;;;;;123.18;49.08;;;2.80;99.90;;;;;;4978371;28;20500;-74
2022/12/08 00:24:31;;;;;;;120.57;51.13;;;2.90;99.90;;;;;;4986615;28;20046;-74
2022/12/08 00:26:58;;;;;;;117.30;50.60;;;2.80;99.90;;;;;;4988345;28;20063;-73
2022/12/08 00:29:25;;;;;;;116.25;51.50;;;2.80;99.90;;;;;;4978247;28;20056;-73
2022/12/08 00:31:52;;;;;;;122.65;50.17;;;2.80;99.90;;;;;;4964510;28;20050;-74
2022/12/08 00:34:19;;;;;;;115.20;48.90;;;2.80;99.90;;;;;;4988961;28;20293;-74
2022/12/08 00:36:46;;;;;;;117.63;49.53;;;2.80;99.90;;;;;;4984613;28;20046;-74
2022/12/08 00:39:15;;;;;;;99.22;44.28;;;2.80;99.90;;;;;;4972116;28;20042;-74
2022/12/08 00:44:27;;;;;;;93.55;39.53;;;2.80;99.90;;;;;;4980842;28;20417;-75
2022/12/08 00:46:54;;;;;;;98.57;42.78;;;2.70;99.90;;;;;;4975149;28;20096;-73
2022/12/08 00:49:21;;;;;;;96.50;41.67;;;2.80;99.90;;;;;;4983812;28;20129;-73
2022/12/08 00:51:48;;;;;;;108.72;45.25;;;2.80;99.90;;;;;;4977922;28;20956;-75
2022/12/08 00:54:16;;;;;;;92.63;42.55;;;2.70;99.90;;;;;;4977615;28;20046;-74
2022/12/08 00:56:43;;;;;;;93.88;42.40;;;2.70;99.90;;;;;;4983578;28;20066;-73
2022/12/08 00:59:10;;;;;;;99.35;44.40;;;2.80;99.90;;;;;;4972295;28;20519;-75
2022/12/08 01:01:37;;;;;;;106.78;46.15;;;2.80;99.90;;;;;;4972984;28;20374;-75
2022/12/08 01:04:05;;;;;;;105.97;46.30;;;2.80;99.90;;;;;;4976844;28;20136;-76
2022/12/08 01:06:34;;;;;;;100.35;46.55;;;2.90;99.90;;;;;;4969445;28;20444;-73
2022/12/08 01:09:02;;;;;;;108.47;48.42;;;2.80;99.90;;;;;;4967849;28;20047;-73
2022/12/08 01:11:30;;;;;;;100.30;45.05;;;2.80;99.90;;;;;;4974518;28;20512;-73
2022/12/08 01:13:57;;;;;;;108.53;46.45;;;2.80;99.90;;;;;;4971401;28;21188;-74
2022/12/08 01:16:30;;;;;;;90.35;38.08;;;2.80;99.90;;;;;;4977977;28;20046;-73
2022/12/08 01:18:58;;;;;;;100.38;43.47;;;2.80;99.90;;;;;;4981319;28;20050;-74
2022/12/08 01:21:25;;;;;;;102.22;44.50;;;2.80;99.90;;;;;;4960136;28;20038;-74
2022/12/08 01:23:52;;;;;;;110.05;45.03;;;2.80;99.90;;;;;;4976314;28;20136;-74
2022/12/08 01:26:19;;;;;;;96.15;45.50;;;2.80;99.90;;;;;;4975862;28;20533;-74
2022/12/08 01:28:47;;;;;;;101.03;45.05;;;2.80;99.90;;;;;;4982269;28;20049;-74
2022/12/08 01:31:23;;;;;;;92.03;40.83;;;2.70;99.90;;;;;;4980843;28;20045;-74
2022/12/08 01:33:50;;;;;;;106.65;46.65;;;2.80;99.90;;;;;;4988713;28;20046;-74
2022/12/08 01:36:28;;;;;;;94.60;44.47;;;2.80;99.90;;;;;;4969859;28;20111;-74
2022/12/08 01:39:00;;;;;;;93.25;41.30;;;2.80;99.90;;;;;;4978281;28;20050;-76
2022/12/08 01:41:30;;;;;;;98.70;44.00;;;2.80;99.90;;;;;;4979970;28;20046;-74
2022/12/08 01:43:59;;;;;;;95.82;41.30;;;2.80;99.90;;;;;;4980418;28;20054;-74
2022/12/08 01:46:28;;;;;;;92.97;42.60;;;2.80;99.90;;;;;;4987661;28;20035;-74
2022/12/08 01:49:11;;;;;;;89.93;41.25;;;2.80;99.90;;;;;;4973456;28;20053;-73
2022/12/08 01:51:53;;;;;;;88.95;39.83;;;2.70;99.90;;;;;;4987522;28;20050;-74
2022/12/08 01:54:22;;;;;;;92.25;39.45;;;2.70;99.90;;;;;;4981025;28;20045;-73
2022/12/08 01:56:57;;;;;;;91.75;40.38;;;2.70;99.90;;;;;;4976874;28;20045;-73
2022/12/08 01:59:25;;;;;;;96.40;39.90;;;2.70;99.90;;;;;;4980235;28;20673;-73
2022/12/08 02:01:52;;;;;;;86.25;39.10;;;2.80;99.90;;;;;;4977781;28;20038;-74
2022/12/08 02:04:19;;;;;;;98.72;39.35;;;2.70;99.90;;;;;;4976829;28;20038;-74
2022/12/08 02:06:48;;;;;;;88.25;37.17;;;2.70;99.90;;;;;;4984174;28;20034;-74
2022/12/08 02:09:14;;;;;;;99.88;38.30;;;2.80;99.90;;;;;;4980053;28;20053;-74
2022/12/08 02:11:41;;;;;;;88.65;36.47;;;2.70;99.90;;;;;;4981517;28;20443;-74
2022/12/08 02:14:10;;;;;;;80.65;36.70;;;2.70;99.90;;;;;;4986052;28;20046;-74
2022/12/08 02:17:00;;;;;;;80.38;36.90;;;2.70;99.90;;;;;;4977713;28;20054;-75
2022/12/08 02:19:47;;;;;;;76.55;33.45;;;2.70;99.90;;;;;;4978149;28;20042;-74
2022/12/08 02:22:18;;;;;;;66.80;32.63;;;2.80;99.90;;;;;;4974629;28;20042;-74
2022/12/08 02:24:53;;;;;;;71.05;30.80;;;2.70;99.90;;;;;;4987502;28;20057;-74
2022/12/08 02:27:45;;;;;;;63.67;27.63;;;2.70;99.90;;;;;;4987819;28;20042;-75
2022/12/08 02:30:33;;;;;;;59.47;24.08;;;2.70;99.90;;;;;;4978449;28;20054;-74
2022/12/08 02:33:49;;;;;;;52.65;22.90;;;2.70;99.90;;;;;;4991735;28;20467;-74
2022/12/08 02:36:23;;;;;;;51.28;21.85;;;2.60;99.90;;;;;;4913923;28;20449;-75
2022/12/08 02:39:09;;;;;;;53.85;23.52;;;2.60;99.90;;;;;;4979505;28;20046;-75
2022/12/08 02:41:48;;;;;;;53.78;24.27;;;2.50;99.90;;;;;;4975985;28;20188;-75
2022/12/08 02:44:23;;;;;;;50.58;23.83;;;2.40;99.90;;;;;;4991841;28;20049;-75
2022/12/08 02:46:57;;;;;;;54.40;25.05;;;2.40;99.90;;;;;;4979329;28;20735;-76
2022/12/08 02:49:32;;;;;;;57.80;25.20;;;2.50;99.90;;;;;;4980233;28;20085;-77
2022/12/08 02:52:07;;;;;;;63.05;26.80;;;2.50;99.90;;;;;;4990555;28;20058;-77
2022/12/08 02:54:35;;;;;;;49.80;23.77;;;2.50;99.90;;;;;;4987248;28;20089;-75
2022/12/08 02:57:30;;;;;;;60.70;26.13;;;2.60;99.90;;;;;;4973594;28;20042;-74
2022/12/08 03:00:07;;;;;;;65.60;27.58;;;2.60;99.90;;;;;;4991099;28;20046;-74
2022/12/08 03:03:02;;;;;;;71.90;29.75;;;2.60;99.90;;;;;;4977200;28;20657;-74
2022/12/08 03:06:08;;;;;;;63.45;31.00;;;2.70;99.90;;;;;;4987296;28;20054;-74
2022/12/08 03:08:48;;;;;;;70.05;29.20;;;2.60;99.90;;;;;;4984449;28;20062;-74
2022/12/08 03:11:27;;;;;;;66.60;29.65;;;2.70;99.90;;;;;;4986332;28;20046;-74
2022/12/08 03:13:58;;;;;;;60.85;27.88;;;2.70;99.90;;;;;;5004710;23;20124;-72
2022/12/08 03:16:30;;;;;;;67.10;31.33;;;2.60;99.90;;;;;;4993440;28;20057;-73
2022/12/08 03:19:18;;;;;;;76.07;35.38;;;2.60;99.90;;;;;;4990973;28;20045;-72
2022/12/08 03:21:50;;;;;;;76.35;32.53;;;2.70;99.90;;;;;;4975709;28;20041;-72
2022/12/08 03:24:18;;;;;;;82.72;37.78;;;2.70;99.90;;;;;;4983603;28;20513;-72
2022/12/08 03:26:47;;;;;;;83.72;36.28;;;2.80;99.90;;;;;;4967730;28;20182;-72
2022/12/08 03:29:14;;;;;;;90.57;39.95;;;2.70;99.90;;;;;;4970931;28;20540;-72
2022/12/08 03:31:48;;;;;;;72.32;36.42;;;2.80;99.90;;;;;;4970340;28;20042;-72
2022/12/08 03:34:17;;;;;;;92.18;41.22;;;2.70;99.90;;;;;;4962659;28;20112;-73
2022/12/08 03:36:44;;;;;;;81.57;37.63;;;2.70;99.90;;;;;;4954714;28;20039;-72
2022/12/08 03:39:11;;;;;;;81.40;37.97;;;2.70;99.90;;;;;;4970027;28;20042;-72
2022/12/08 03:41:37;;;;;;;82.45;38.10;;;2.70;99.90;;;;;;4972003;28;20043;-73
2022/12/08 03:44:04;;;;;;;72.72;35.70;;;2.70;99.90;;;;;;4968314;28;20049;-72
2022/12/08 03:46:31;;;;;;;78.50;37.20;;;2.80;99.90;;;;;;4972260;28;20501;-72
2022/12/08 03:48:57;;;;;;;75.10;36.35;;;2.80;99.90;;;;;;4970690;28;20046;-72
2022/12/08 03:51:26;;;;;;;79.75;35.75;;;2.70;99.90;;;;;;4972982;28;20050;-71
2022/12/08 03:53:52;;;;;;;83.65;36.05;;;2.80;99.90;;;;;;4971559;28;20047;-72
2022/12/08 03:56:25;;;;;;;83.88;38.22;;;2.70;99.90;;;;;;4976625;28;20046;-71
2022/12/08 03:58:53;;;;;;;77.47;34.63;;;2.80;99.90;;;;;;4972281;28;20042;-73
2022/12/08 04:01:22;;;;;;;92.40;41.38;;;2.80;99.90;;;;;;4967331;28;20472;-72
2022/12/08 04:03:49;;;;;;;86.53;38.55;;;2.70;99.90;;;;;;4966753;28;20116;-72
2022/12/08 04:06:16;;;;;;;94.22;39.70;;;2.80;99.90;;;;;;4975550;28;20041;-72
2022/12/08 04:08:43;;;;;;;88.85;39.28;;;2.70;99.90;;;;;;4970769;28;20129;-72
2022/12/08 04:11:10;;;;;;;72.97;30.45;;;2.70;99.90;;;;;;4969705;28;20035;-72
2022/12/08 04:13:38;;;;;;;70.05;31.63;;;2.70;99.90;;;;;;4971459;28;20161;-72
2022/12/08 04:16:06;;;;;;;69.10;28.75;;;2.60;99.90;;;;;;4962504;28;20588;-72
2022/12/08 04:18:34;;;;;;;64.97;29.48;;;2.60;99.90;;;;;;4972662;28;20038;-71
2022/12/08 04:21:01;;;;;;;63.00;28.50;;;2.60;99.90;;;;;;4968349;28;20125;-71
2022/12/08 04:23:28;;;;;;;61.20;30.77;;;2.60;99.90;;;;;;4973019;28;20046;-71
2022/12/08 04:25:54;;;;;;;67.55;31.27;;;2.60;99.90;;;;;;4971955;28;20047;-72
2022/12/08 04:28:21;;;;;;;87.55;37.50;;;2.60;99.90;;;;;;4969053;28;20046;-72
2022/12/08 04:30:48;;;;;;;72.60;32.22;;;2.70;99.90;;;;;;4960550;28;20408;-73
2022/12/08 04:33:15;;;;;;;71.45;33.28;;;2.70;99.90;;;;;;4968166;28;20505;-72
2022/12/08 04:35:42;;;;;;;70.80;30.73;;;2.60;99.90;;;;;;4969823;28;20046;-72
2022/12/08 04:38:09;;;;;;;62.17;28.77;;;2.60;99.90;;;;;;4973877;28;20053;-72
2022/12/08 04:40:36;;;;;;;66.55;29.73;;;2.60;99.90;;;;;;4970464;28;20531;-73
2022/12/08 04:43:03;;;;;;;75.82;33.10;;;2.60;99.90;;;;;;4964246;28;20035;-72
2022/12/08 04:45:30;;;;;;;76.22;32.00;;;2.60;99.90;;;;;;4966618;28;20552;-73
2022/12/08 04:47:58;;;;;;;73.32;34.13;;;2.60;99.90;;;;;;4967893;28;20056;-72
2022/12/08 04:50:25;;;;;;;64.95;31.05;;;2.50;99.90;;;;;;4976388;28;20078;-72
2022/12/08 04:52:52;;;;;;;75.10;34.58;;;2.50;99.90;;;;;;4967374;28;20078;-73
2022/12/08 04:55:20;;;;;;;79.03;33.85;;;2.60;99.90;;;;;;4974399;28;20053;-73
2022/12/08 04:57:46;;;;;;;76.47;33.85;;;2.60;99.90;;;;;;4968545;28;20466;-71
2022/12/08 05:00:14;;;;;;;70.13;30.83;;;2.50;99.90;;;;;;4972370;28;20105;-72
2022/12/08 05:02:40;;;;;;;62.53;29.00;;;2.50;99.90;;;;;;4965563;28;20046;-73
2022/12/08 05:05:07;;;;;;;75.57;33.85;;;2.50;99.90;;;;;;4973490;28;20468;-73
2022/12/08 05:07:34;;;;;;;77.95;35.22;;;2.60;99.90;;;;;;4973089;28;20768;-73
2022/12/08 05:10:01;;;;;;;64.47;30.50;;;2.60;99.90;;;;;;4971482;28;20038;-73
2022/12/08 05:12:28;;;;;;;70.82;32.42;;;2.50;99.90;;;;;;4973077;28;20053;-73
2022/12/08 05:14:55;;;;;;;69.32;31.77;;;2.50;99.90;;;;;;4934362;28;20532;-73
2022/12/08 05:17:21;;;;;;;71.25;31.08;;;2.60;99.90;;;;;;4973698;28;20057;-73
2022/12/08 05:19:48;;;;;;;68.35;32.92;;;2.50;99.90;;;;;;4973697;28;20046;-72
2022/12/08 05:22:15;;;;;;;54.58;25.55;;;2.50;99.90;;;;;;4978609;28;20061;-70
2022/12/08 05:24:42;;;;;;;58.25;29.42;;;2.50;99.90;;;;;;4967052;28;20057;-72
2022/12/08 05:27:13;;;;;;;57.22;26.73;;;2.50;99.90;;;;;;4980783;28;20764;-73
2022/12/08 05:29:40;;;;;;;55.45;25.63;;;2.50;99.90;;;;;;4975085;28;20109;-73
2022/12/08 05:32:06;;;;;;;57.15;25.48;;;2.40;99.90;;;;;;4950080;28;20045;-73
2022/12/08 05:34:33;;;;;;;58.55;27.00;;;2.50;99.90;;;;;;4962289;28;20050;-73
2022/12/08 05:37:00;;;;;;;55.10;28.17;;;2.50;99.90;;;;;;4960652;28;21499;-74
2022/12/08 05:39:26;;;;;;;59.13;28.42;;;2.40;99.90;;;;;;4974062;28;20043;-72
2022/12/08 05:41:53;;;;;;;63.35;28.83;;;2.50;99.90;;;;;;4972661;28;20464;-72
2022/12/08 05:44:20;;;;;;;55.15;24.63;;;2.50;99.90;;;;;;4971668;28;20049;-73
2022/12/08 05:46:47;;;;;;;54.80;26.20;;;2.40;99.90;;;;;;4966824;28;20102;-73
2022/12/08 05:49:13;;;;;;;56.20;24.77;;;2.40;99.90;;;;;;4966072;28;20253;-73
2022/12/08 05:51:40;;;;;;;60.70;26.40;;;2.30;99.90;;;;;;4972689;28;20072;-73
2022/12/08 05:54:06;;;;;;;50.10;24.42;;;2.30;99.90;;;;;;4972878;28;20050;-72
2022/12/08 05:56:33;;;;;;;56.13;25.85;;;2.30;99.90;;;;;;4970106;28;20050;-73
2022/12/08 05:59:00;;;;;;;54.10;26.50;;;2.30;99.90;;;;;;4964287;28;20042;-73
2022/12/08 06:01:30;;;;;;;51.83;24.38;;;2.30;99.90;;;;;;4965821;28;20547;-71
2022/12/08 06:03:58;;;;;;;51.75;25.15;;;2.30;99.90;;;;;;4963986;28;20414;-72
2022/12/08 06:06:25;;;;;;;55.35;25.80;;;2.20;99.90;;;;;;4965121;28;20047;-72
2022/12/08 06:08:52;;;;;;;51.80;23.65;;;2.20;99.90;;;;;;4967402;28;20292;-74
2022/12/08 06:11:28;;;;;;;53.30;25.02;;;2.10;99.90;;;;;;4971612;28;20413;-73
2022/12/08 06:13:55;;;;;;;56.05;26.55;;;2.20;99.90;;;;;;4969470;28;20057;-73
2022/12/08 06:16:24;;;;;;;54.53;25.48;;;2.10;99.90;;;;;;4965769;28;20475;-74
2022/12/08 06:18:51;;;;;;;62.92;28.27;;;2.10;99.90;;;;;;4961180;28;20047;-72
2022/12/08 06:21:19;;;;;;;58.67;27.90;;;2.10;99.90;;;;;;4973720;28;20046;-72
2022/12/08 06:23:51;;;;;;;62.47;26.08;;;2.10;99.90;;;;;;4970164;28;20077;-72
2022/12/08 06:26:18;;;;;;;52.28;25.70;;;2.10;99.90;;;;;;4973629;28;20042;-71
2022/12/08 06:28:45;;;;;;;66.07;28.25;;;2.10;99.90;;;;;;4970272;28;20054;-73
2022/12/08 06:31:23;;;;;;;61.65;28.15;;;2.10;99.90;;;;;;4973435;28;20141;-73
2022/12/08 06:33:50;;;;;;;65.85;28.00;;;2.10;99.90;;;;;;4970931;28;20137;-73
2022/12/08 06:36:19;;;;;;;57.03;26.42;;;2.00;99.90;;;;;;4965996;28;20038;-73
2022/12/08 06:38:46;;;;;;;55.03;25.40;;;2.00;99.90;;;;;;4967020;28;20082;-73
2022/12/08 06:41:13;;;;;;;73.90;28.83;;;2.10;99.90;;;;;;4973309;28;20498;-73
2022/12/08 06:43:41;;;;;;;62.30;28.77;;;2.00;99.90;;;;;;4969940;28;20042;-71
2022/12/08 06:46:10;;;;;;;59.70;27.02;;;2.00;99.90;;;;;;4962022;28;20062;-71
2022/12/08 06:48:37;;;;;;;58.53;26.98;;;2.00;99.90;;;;;;4968674;28;20106;-73
2022/12/08 06:51:10;;;;;;;56.55;25.80;;;2.00;99.90;;;;;;4965445;28;20053;-73
2022/12/08 06:53:37;;;;;;;60.72;27.33;;;2.00;99.90;;;;;;4971162;28;20398;-73
2022/12/08 06:56:04;;;;;;;67.32;27.48;;;2.00;99.90;;;;;;4972777;28;20045;-73
2022/12/08 06:58:32;;;;;;;65.80;28.67;;;2.00;99.90;;;;;;4974499;28;20057;-72
2022/12/08 07:01:10;;;;;;;63.67;28.10;;;2.00;99.90;;;;;;4970159;28;20382;-73
2022/12/08 07:03:38;;;;;;;58.72;29.13;;;2.00;99.90;;;;;;4972741;28;20051;-73
2022/12/08 07:06:06;;;;;;;69.80;29.40;;;2.00;99.90;;;;;;4969776;28;20042;-72
2022/12/08 07:08:33;;;;;;;61.45;28.17;;;2.10;99.90;;;;;;4971646;28;20050;-73
2022/12/08 07:11:07;;;;;;;58.38;25.35;;;2.10;99.90;;;;;;4971481;28;20429;-71
2022/12/08 07:13:33;;;;;;;62.05;27.55;;;2.10;99.90;;;;;;4964774;28;20052;-71
2022/12/08 07:16:03;;;;;;;62.38;28.35;;;2.10;99.90;;;;;;4971591;28;20539;-72
2022/12/08 07:18:29;;;;;;;61.42;28.85;;;2.10;99.90;;;;;;4974169;28;20425;-73
2022/12/08 07:20:56;;;;;;;58.90;26.90;;;2.10;99.90;;;;;;4959234;28;20056;-72
2022/12/08 07:23:22;;;;;;;71.57;27.75;;;2.10;99.90;;;;;;4970724;28;20038;-72
2022/12/08 07:25:49;;;;;;;61.17;27.98;;;2.10;99.90;;;;;;4971965;28;20448;-71
2022/12/08 07:28:16;;;;;;;58.03;30.55;;;2.20;99.90;;;;;;4977987;28;20130;-73
2022/12/08 07:30:42;;;;;;;57.13;27.45;;;2.20;99.90;;;;;;4971505;28;20038;-72
2022/12/08 07:33:09;;;;;;;58.17;26.90;;;2.20;99.90;;;;;;4974558;28;20054;-72
2022/12/08 07:35:36;;;;;;;62.67;28.45;;;2.20;99.90;;;;;;4973414;28;20495;-73
2022/12/08 07:38:02;;;;;;;63.30;28.35;;;2.20;99.90;;;;;;4971539;28;20058;-71
2022/12/08 07:40:29;;;;;;;61.85;27.45;;;2.20;99.90;;;;;;4971785;28;20077;-73
2022/12/08 07:42:55;;;;;;;72.15;31.77;;;2.20;99.90;;;;;;4971605;28;20054;-74
2022/12/08 07:45:22;;;;;;;63.35;28.42;;;2.20;99.90;;;;;;4951486;28;20046;-73
2022/12/08 07:47:56;;;;;;;57.92;27.92;;;2.20;99.90;;;;;;4970828;28;20705;-73
2022/12/08 07:50:23;;;;;;;66.28;27.88;;;2.20;99.90;;;;;;4973828;28;20038;-72
2022/12/08 07:52:50;;;;;;;63.38;30.17;;;2.20;99.90;;;;;;4964132;28;20489;-73
2022/12/08 07:55:17;;;;;;;57.10;25.67;;;2.10;99.90;;;;;;4970263;28;20049;-73
2022/12/08 07:57:43;;;;;;;61.58;27.50;;;2.10;99.90;;;;;;4966576;28;20101;-72
2022/12/08 08:00:10;;;;;;;64.88;29.23;;;2.10;99.90;;;;;;4963182;28;20492;-74
2022/12/08 08:02:38;;;;;;;62.10;29.65;;;2.10;99.90;;;;;;4968519;28;20097;-71
2022/12/08 08:05:05;;;;;;;62.33;28.77;;;2.00;99.90;;;;;;4969633;28;20039;-73
2022/12/08 08:07:32;;;;;;;67.85;31.25;;;2.00;99.90;;;;;;4971557;28;20521;-74
2022/12/08 08:09:59;;;;;;;73.18;31.10;;;2.10;99.90;;;;;;4972048;28;20046;-74
2022/12/08 08:12:25;;;;;;;72.72;34.20;;;2.10;99.90;;;;;;4969498;28;20056;-73
2022/12/08 08:14:59;;;;;;;73.05;33.75;;;2.10;99.90;;;;;;4969462;28;20529;-73
2022/12/08 08:17:26;;;;;;;74.88;32.92;;;2.00;99.90;;;;;;4972665;28;20495;-73
2022/12/08 08:19:52;;;;;;;73.70;32.72;;;2.00;99.90;;;;;;4966665;28;20042;-72
2022/12/08 08:22:19;;;;;;;83.90;32.35;;;1.90;99.90;;;;;;4960335;28;20042;-74
2022/12/08 08:24:46;;;;;;;75.32;32.15;;;2.00;99.90;;;;;;4968435;28;20313;-72
2022/12/08 08:27:12;;;;;;;82.25;31.83;;;1.90;99.90;;;;;;4967613;28;20702;-71
2022/12/08 08:29:39;;;;;;;79.93;30.58;;;1.80;99.90;;;;;;4972010;28;20407;-72
2022/12/08 08:32:06;;;;;;;75.50;32.25;;;1.80;99.90;;;;;;4964760;28;20039;-75
2022/12/08 08:34:32;;;;;;;72.82;28.83;;;1.70;99.90;;;;;;4972794;28;20539;-74
2022/12/08 08:36:59;;;;;;;69.55;28.75;;;1.70;99.90;;;;;;4965808;28;20049;-73
2022/12/08 08:39:26;;;;;;;94.28;33.20;;;1.60;99.90;;;;;;4977905;28;20058;-75
2022/12/08 08:41:53;;;;;;;79.20;32.83;;;1.60;99.90;;;;;;4969284;28;20051;-74
2022/12/08 08:44:19;;;;;;;119.03;36.35;;;1.60;99.90;;;;;;4976433;28;20042;-75
2022/12/08 08:46:46;;;;;;;77.20;32.25;;;1.70;99.90;;;;;;4966519;28;20042;-72
2022/12/08 08:49:13;;;;;;;77.68;30.08;;;1.70;99.90;;;;;;4975999;28;20481;-73
2022/12/08 08:51:40;;;;;;;98.38;33.05;;;1.60;99.90;;;;;;4970504;28;20046;-73
2022/12/08 08:54:07;;;;;;;87.03;35.47;;;1.60;99.90;;;;;;4974458;28;20051;-74
2022/12/08 08:56:33;;;;;;;78.35;32.08;;;1.60;99.90;;;;;;4971012;28;20047;-71
2022/12/08 08:59:01;;;;;;;72.10;33.55;;;1.60;99.90;;;;;;4979022;28;20046;-73
2022/12/08 09:01:28;;;;;;;76.88;31.67;;;1.60;99.90;;;;;;4977008;28;20046;-73
2022/12/08 09:03:55;;;;;;;74.70;32.30;;;1.70;99.90;;;;;;4971594;28;20047;-74
2022/12/08 09:06:23;;;;;;;62.78;30.88;;;1.70;99.90;;;;;;4974489;28;20047;-72
2022/12/08 09:08:50;;;;;;;68.10;30.88;;;1.60;99.90;;;;;;4980246;28;20133;-73
2022/12/08 09:11:17;;;;;;;64.43;28.77;;;1.70;99.90;;;;;;4978984;28;20043;-74
2022/12/08 09:13:48;;;;;;;77.05;31.40;;;1.70;99.90;;;;;;5001536;23;20141;-75
2022/12/08 09:16:16;;;;;;;70.70;30.90;;;1.70;99.90;;;;;;5016541;28;20052;-76
2022/12/08 09:18:43;;;;;;;67.32;29.92;;;1.70;99.90;;;;;;5006481;28;20570;-77
2022/12/08 09:21:15;;;;;;;71.88;29.58;;;1.80;99.90;;;;;;5025133;28;20052;-77
2022/12/08 09:23:42;;;;;;;64.30;30.50;;;1.80;99.90;;;;;;5019748;28;20153;-77
2022/12/08 09:26:09;;;;;;;60.38;28.98;;;1.80;99.90;;;;;;5000566;28;20100;-76
2022/12/08 09:28:36;;;;;;;67.13;28.95;;;1.80;99.90;;;;;;5031225;28;20033;-77
2022/12/08 09:31:03;;;;;;;72.20;29.17;;;1.70;99.90;;;;;;5025153;28;20059;-77
2022/12/08 09:33:30;;;;;;;63.80;27.92;;;1.80;99.90;;;;;;5026043;28;20068;-77
2022/12/08 09:36:02;;;;;;;68.00;30.05;;;1.80;99.90;;;;;;5025638;28;20046;-77
2022/12/08 09:38:29;;;;;;;79.75;32.90;;;1.70;99.90;;;;;;5020583;28;20080;-77
2022/12/08 09:40:57;;;;;;;80.38;30.58;;;1.70;99.90;;;;;;5002105;28;20045;-77
2022/12/08 09:43:43;;;;;;;70.47;28.70;;;1.60;99.90;;;;;;5018220;28;20038;-77
2022/12/08 09:46:13;;;;;;;66.97;28.05;;;1.60;99.90;;;;;;5002922;28;20053;-77
2022/12/08 09:48:46;;;;;;;63.67;28.45;;;1.70;99.90;;;;;;4994627;28;20072;-77
2022/12/08 09:51:14;;;;;;;63.58;26.55;;;1.60;99.90;;;;;;4984517;28;20044;-77
2022/12/08 09:54:10;;;;;;;67.88;29.15;;;1.60;99.90;;;;;;5008687;28;20543;-77
2022/12/08 09:56:38;;;;;;;76.50;28.48;;;1.70;99.90;;;;;;4996701;28;20041;-76
2022/12/08 09:59:08;;;;;;;71.80;30.65;;;1.70;99.90;;;;;;4979598;28;20499;-77
2022/12/08 10:01:40;;;;;;;66.20;27.63;;;1.60;99.90;;;;;;4999556;28;20515;-77
2022/12/08 10:04:25;;;;;;;61.05;27.92;;;1.60;99.90;;;;;;5016922;28;20385;-77
2022/12/08 10:06:58;;;;;;;66.00;31.27;;;1.60;99.90;;;;;;4997105;28;20200;-77
2022/12/08 10:09:37;;;;;;;77.80;30.65;;;1.50;99.90;;;;;;5017591;28;20275;-78
2022/12/08 10:12:27;;;;;;;80.22;34.17;;;1.50;99.90;;;;;;5000553;28;20045;-78
2022/12/08 10:15:31;;;;;;;92.80;35.08;;;1.60;99.90;;;;;;5015316;28;20049;-77
2022/12/08 10:18:02;;;;;;;84.45;32.20;;;1.50;99.90;;;;;;4998247;28;20502;-77
2022/12/08 10:20:36;;;;;;;86.78;34.42;;;1.60;99.90;;;;;;5011666;28;20054;-78
2022/12/08 10:23:11;;;;;;;72.75;32.33;;;1.50;99.90;;;;;;5007496;28;20038;-77
2022/12/08 10:25:49;;;;;;;87.38;35.08;;;1.60;99.90;;;;;;5011061;28;20048;-79
2022/12/08 10:28:16;;;;;;;73.72;32.55;;;1.60;99.90;;;;;;4985387;28;20499;-78
2022/12/08 10:30:43;;;;;;;92.95;39.30;;;1.60;99.90;;;;;;5016177;28;20038;-77
2022/12/08 10:33:16;;;;;;;98.78;39.47;;;1.50;99.90;;;;;;4993924;28;20057;-77
2022/12/08 10:35:57;;;;;;;105.28;41.47;;;1.60;99.90;;;;;;4985590;28;20050;-76
2022/12/08 10:38:35;;;;;;;103.50;39.65;;;1.60;99.90;;;;;;5007607;28;20050;-76
2022/12/08 10:41:10;;;;;;;109.32;38.55;;;1.60;99.90;;;;;;4994796;28;20148;-76
2022/12/08 10:43:43;;;;;;;100.13;39.50;;;1.60;99.90;;;;;;4999854;28;20445;-76
2022/12/08 10:46:13;;;;;;;100.13;40.00;;;1.60;99.90;;;;;;5007997;28;20042;-76
2022/12/08 10:48:48;;;;;;;97.18;38.58;;;1.60;99.90;;;;;;5016489;28;20046;-76
2022/12/08 10:51:32;;;;;;;106.53;40.65;;;1.60;99.90;;;;;;4996805;28;20048;-76
2022/12/08 10:54:00;;;;;;;89.70;37.05;;;1.60;99.90;;;;;;5013170;28;20084;-75
2022/12/08 10:56:28;;;;;;;93.40;36.15;;;1.70;99.90;;;;;;4988623;28;20064;-75
2022/12/08 10:59:17;;;;;;;101.93;39.00;;;1.70;99.90;;;;;;4989865;28;20061;-75
2022/12/08 11:01:47;;;;;;;99.95;38.80;;;1.70;99.90;;;;;;5002196;28;20141;-75
2022/12/08 11:04:20;;;;;;;89.95;37.63;;;1.60;99.90;;;;;;5005507;28;20045;-75
2022/12/08 11:06:49;;;;;;;90.43;37.25;;;1.60;99.90;;;;;;4990627;28;20050;-76
2022/12/08 11:09:19;;;;;;;82.25;33.55;;;1.60;99.90;;;;;;5001937;28;20045;-75
2022/12/08 11:11:59;;;;;;;82.25;35.22;;;1.60;99.90;;;;;;5003935;28;20049;-75
2022/12/08 11:14:32;;;;;;;92.57;36.38;;;1.60;99.90;;;;;;4993526;28;20049;-76
2022/12/08 11:17:05;;;;;;;79.80;34.20;;;1.60;99.90;;;;;;5006689;28;20087;-76
2022/12/08 11:19:36;;;;;;;90.57;36.40;;;1.50;99.90;;;;;;4987474;28;20064;-75
2022/12/08 11:22:31;;;;;;;93.07;36.35;;;1.50;99.90;;;;;;4994356;28;20049;-75
2022/12/08 11:25:05;;;;;;;99.50;37.75;;;1.50;99.90;;;;;;4980186;28;20048;-75
2022/12/08 11:27:44;;;;;;;112.22;38.45;;;1.40;99.90;;;;;;4990737;28;20051;-76
2022/12/08 11:30:16;;;;;;;97.82;36.95;;;1.50;99.90;;;;;;4999407;28;20551;-76
2022/12/08 11:32:45;;;;;;;98.50;38.70;;;1.40;99.90;;;;;;4996025;28;20073;-73
2022/12/08 11:35:25;;;;;;;79.50;32.58;;;1.50;99.90;;;;;;4991882;28;20057;-72
2022/12/08 11:38:10;;;;;;;77.25;34.15;;;1.50;99.90;;;;;;4993597;28;20049;-72
2022/12/08 11:40:50;;;;;;;;;;;1.50;99.90;;;;;;5007691;28;20037;-73
2022/12/08 11:43:37;;;;;;;77.90;31.52;;;1.60;99.90;;;;;;4991761;28;20145;-73
2022/12/08 11:46:27;;;;;;;84.05;32.70;;;1.50;99.90;;;;;;5002416;28;20925;-71
2022/12/08 11:49:01;;;;;;;92.97;35.28;;;1.60;99.90;;;;;;4999031;28;20042;-70
2022/12/08 11:51:53;;;;;;;108.60;39.92;;;1.60;99.90;;;;;;4981224;28;20512;-71
2022/12/08 11:54:44;;;;;;;111.22;36.65;;;1.60;99.90;;;;;;4981355;28;20117;-71
2022/12/08 11:57:15;;;;;;;90.28;36.35;;;1.50;99.90;;;;;;4979305;28;20238;-71
2022/12/08 11:59:48;;;;;;;91.88;36.65;;;1.50;99.90;;;;;;5011380;28;20061;-71
2022/12/08 12:02:16;;;;;;;89.30;34.58;;;1.50;99.90;;;;;;5010983;28;20421;-71
2022/12/08 12:04:52;;;;;;;93.45;33.50;;;1.50;99.90;;;;;;4990405;28;20354;-71
2022/12/08 12:07:27;;;;;;;102.40;39.15;;;1.50;99.90;;;;;;4986382;28;20056;-72
2022/12/08 12:10:19;;;;;;;126.22;44.05;;;1.50;99.90;;;;;;4980913;28;20092;-72
2022/12/08 12:13:03;;;;;;;122.90;44.90;;;1.60;99.90;;;;;;4978212;28;20060;-72
2022/12/08 12:15:44;;;;;;;108.60;39.92;;;1.60;99.90;;;;;;4990307;28;20046;-72
2022/12/08 12:18:23;;;;;;;115.00;39.22;;;1.60;99.90;;;;;;5013437;28;20519;-72
2022/12/08 12:21:25;;;;;;;110.95;38.63;;;1.60;99.90;;;;;;4991086;28;20052;-73
2022/12/08 12:23:56;;;;;;;121.07;39.85;;;1.60;99.90;;;;;;5007286;28;20056;-73
2022/12/08 12:26:37;;;;;;;142.98;45.58;;;1.60;99.90;;;;;;5002137;28;20041;-73
2022/12/08 12:29:10;;;;;;;126.65;44.58;;;1.60;99.90;;;;;;4996287;28;20202;-73
2022/12/08 12:31:40;;;;;;;126.65;42.63;;;1.60;99.90;;;;;;5004145;28;20065;-72
2022/12/08 12:34:17;;;;;;;135.55;43.90;;;1.60;99.90;;;;;;4991573;28;20045;-72
2022/12/08 12:36:55;;;;;;;111.35;39.83;;;1.60;99.90;;;;;;4994279;28;20661;-72
2022/12/08 12:39:26;;;;;;;149.90;47.17;;;1.70;99.90;;;;;;4990096;28;20551;-72
2022/12/08 12:41:58;;;;;;;117.95;39.40;;;1.70;99.90;;;;;;4992642;28;20048;-73
2022/12/08 12:44:28;;;;;;;110.68;42.45;;;1.60;99.90;;;;;;5005704;28;20059;-72
2022/12/08 12:46:57;;;;;;;99.43;37.83;;;1.70;99.90;;;;;;5010902;28;20515;-72
2022/12/08 12:49:39;;;;;;;121.82;40.17;;;1.70;99.90;;;;;;5017931;28;20053;-72
2022/12/08 12:52:09;;;;;;;119.35;38.95;;;1.70;99.90;;;;;;5015012;28;20128;-71
2022/12/08 12:54:40;;;;;;;120.97;38.60;;;1.80;99.90;;;;;;4997554;28;20045;-72
2022/12/08 12:57:07;;;;;;;107.18;38.72;;;1.70;99.90;;;;;;5012144;28;20068;-72
2022/12/08 12:59:52;;;;;;;116.97;39.97;;;1.70;99.90;;;;;;5009829;28;20049;-72
2022/12/08 13:02:37;;;;;;;114.30;38.22;;;1.70;99.90;;;;;;5000297;28;20206;-72